sensor_id;sensor_type;location;lat;lon;timestamp;P1;durP1;ratioP1;P2;durP2;ratioP2
928;SDS011;451;47.988;7.842;2024-03-23T00:56:04;1.80;;;1.70;;
928;SDS011;451;47.988;7.842;2024-03-23T01:05:06;2.80;;;1.80;;
928;SDS011;451;47.988;7.842;2024-03-23T01:14:08;2.03;;;1.90;;
928;SDS011;451;47.988;7.842;2024-03-23T01:23:10;2.10;;;2.00;;
928;SDS011;451;47.988;7.842;2024-03-23T01:32:12;2.03;;;1.90;;
928;SDS011;451;47.988;7.842;2024-03-23T01:41:15;3.17;;;2.70;;
928;SDS011;451;47.988;7.842;2024-03-23T01:50:17;2.97;;;2.43;;
928;SDS011;451;47.988;7.842;2024-03-23T01:59:19;2.43;;;2.23;;
928;SDS011;451;47.988;7.842;2024-03-23T02:08:22;2.77;;;2.57;;
928;SDS011;451;47.988;7.842;2024-03-23T02:17:25;2.97;;;2.70;;
928;SDS011;451;47.988;7.842;2024-03-23T02:26:29;4.70;;;2.20;;
928;SDS011;451;47.988;7.842;2024-03-23T02:35:31;2.47;;;2.27;;
928;SDS011;451;47.988;7.842;2024-03-23T02:44:35;2.57;;;2.40;;
928;SDS011;451;47.988;7.842;2024-03-23T02:53:37;4.30;;;2.73;;
928;SDS011;451;47.988;7.842;2024-03-23T03:02:39;2.57;;;2.37;;
928;SDS011;451;47.988;7.842;2024-03-23T03:11:41;3.10;;;2.50;;
928;SDS011;451;47.988;7.842;2024-03-23T03:20:43;2.90;;;2.30;;
928;SDS011;451;47.988;7.842;2024-03-23T03:29:45;2.67;;;2.47;;
928;SDS011;451;47.988;7.842;2024-03-23T03:38:47;2.37;;;2.17;;
928;SDS011;451;47.988;7.842;2024-03-23T03:47:49;2.73;;;2.50;;
928;SDS011;451;47.988;7.842;2024-03-23T03:56:50;2.67;;;2.10;;
928;SDS011;451;47.988;7.842;2024-03-23T04:05:52;3.00;;;2.73;;
928;SDS011;451;47.988;7.842;2024-03-23T04:14:55;3.00;;;2.70;;
928;SDS011;451;47.988;7.842;2024-03-23T04:23:57;7.37;;;3.23;;
928;SDS011;451;47.988;7.842;2024-03-23T04:32:58;3.00;;;2.70;;
928;SDS011;451;47.988;7.842;2024-03-23T04:42:01;5.63;;;3.90;;
928;SDS011;451;47.988;7.842;2024-03-23T04:51:03;4.90;;;4.40;;
928;SDS011;451;47.988;7.842;2024-03-23T05:00:06;6.70;;;4.00;;
928;SDS011;451;47.988;7.842;2024-03-23T05:09:18;7.73;;;3.87;;
928;SDS011;451;47.988;7.842;2024-03-23T05:18:21;4.60;;;4.17;;
928;SDS011;451;47.988;7.842;2024-03-23T05:27:23;6.93;;;3.80;;
928;SDS011;451;47.988;7.842;2024-03-23T05:36:25;6.37;;;4.10;;
928;SDS011;451;47.988;7.842;2024-03-23T05:45:27;5.07;;;3.50;;
928;SDS011;451;47.988;7.842;2024-03-23T05:54:29;4.13;;;3.60;;
928;SDS011;451;47.988;7.842;2024-03-23T06:03:31;5.57;;;3.57;;
928;SDS011;451;47.988;7.842;2024-03-23T06:12:33;3.67;;;2.70;;
928;SDS011;451;47.988;7.842;2024-03-23T06:21:35;3.60;;;2.33;;
928;SDS011;451;47.988;7.842;2024-03-23T06:30:37;2.40;;;1.30;;
928;SDS011;451;47.988;7.842;2024-03-23T06:39:39;0.60;;;0.60;;
928;SDS011;451;47.988;7.842;2024-03-23T06:48:40;0.60;;;0.60;;
928;SDS011;451;47.988;7.842;2024-03-23T06:57:42;2.20;;;0.63;;
928;SDS011;451;47.988;7.842;2024-03-23T07:06:44;0.60;;;0.60;;
928;SDS011;451;47.988;7.842;2024-03-23T07:15:53;0.60;;;0.60;;
928;SDS011;451;47.988;7.842;2024-03-23T07:24:57;0.57;;;0.57;;
928;SDS011;451;47.988;7.842;2024-03-23T07:34:02;0.57;;;0.57;;
928;SDS011;451;47.988;7.842;2024-03-23T07:43:04;0.60;;;0.60;;
928;SDS011;451;47.988;7.842;2024-03-23T07:52:06;0.80;;;0.60;;
928;SDS011;451;47.988;7.842;2024-03-23T08:01:12;0.50;;;0.50;;
928;SDS011;451;47.988;7.842;2024-03-23T08:10:18;0.77;;;0.77;;
928;SDS011;451;47.988;7.842;2024-03-23T08:19:20;2.40;;;0.90;;
928;SDS011;451;47.988;7.842;2024-03-23T08:28:22;0.90;;;0.90;;
928;SDS011;451;47.988;7.842;2024-03-23T08:37:24;1.87;;;1.40;;
928;SDS011;451;47.988;7.842;2024-03-23T08:46:26;2.13;;;1.97;;
928;SDS011;451;47.988;7.842;2024-03-23T08:55:29;3.37;;;1.43;;
928;SDS011;451;47.988;7.842;2024-03-23T09:04:30;2.57;;;2.07;;
928;SDS011;451;47.988;7.842;2024-03-23T09:13:36;1.57;;;1.47;;
928;SDS011;451;47.988;7.842;2024-03-23T09:22:38;2.87;;;1.70;;
928;SDS011;451;47.988;7.842;2024-03-23T09:31:40;3.35;;;2.20;;
928;SDS011;451;47.988;7.842;2024-03-23T09:40:42;2.10;;;1.33;;
928;SDS011;451;47.988;7.842;2024-03-23T09:49:44;2.40;;;2.20;;
928;SDS011;451;47.988;7.842;2024-03-23T09:58:46;4.30;;;2.73;;
928;SDS011;451;47.988;7.842;2024-03-23T10:07:51;1.70;;;1.40;;
928;SDS011;451;47.988;7.842;2024-03-23T10:16:53;2.80;;;1.73;;
928;SDS011;451;47.988;7.842;2024-03-23T10:26:11;4.57;;;2.10;;
928;SDS011;451;47.988;7.842;2024-03-23T10:35:20;3.33;;;2.30;;
928;SDS011;451;47.988;7.842;2024-03-23T10:44:25;0.73;;;0.73;;
928;SDS011;451;47.988;7.842;2024-03-23T10:53:30;1.00;;;0.90;;
928;SDS011;451;47.988;7.842;2024-03-23T11:02:34;0.97;;;0.97;;
928;SDS011;451;47.988;7.842;2024-03-23T11:11:36;2.50;;;1.00;;
928;SDS011;451;47.988;7.842;2024-03-23T11:20:38;2.70;;;1.30;;
928;SDS011;451;47.988;7.842;2024-03-23T11:29:41;1.27;;;1.27;;
928;SDS011;451;47.988;7.842;2024-03-23T11:38:43;1.10;;;0.80;;
928;SDS011;451;47.988;7.842;2024-03-23T11:47:45;0.83;;;0.80;;
928;SDS011;451;47.988;7.842;2024-03-23T11:56:59;1.33;;;1.20;;
928;SDS011;451;47.988;7.842;2024-03-23T12:06:03;0.70;;;0.70;;
928;SDS011;451;47.988;7.842;2024-03-23T12:15:06;1.57;;;1.00;;
928;SDS011;451;47.988;7.842;2024-03-23T12:24:09;1.50;;;1.20;;
928;SDS011;451;47.988;7.842;2024-03-23T12:33:11;2.27;;;0.90;;
928;SDS011;451;47.988;7.842;2024-03-23T12:42:13;2.13;;;1.27;;
928;SDS011;451;47.988;7.842;2024-03-23T12:51:16;3.90;;;1.10;;
928;SDS011;451;47.988;7.842;2024-03-23T13:00:18;3.83;;;1.57;;
928;SDS011;451;47.988;7.842;2024-03-23T13:09:20;2.20;;;1.03;;
928;SDS011;451;47.988;7.842;2024-03-23T13:18:22;2.30;;;1.13;;
928;SDS011;451;47.988;7.842;2024-03-23T13:27:23;1.70;;;1.30;;
928;SDS011;451;47.988;7.842;2024-03-23T13:36:25;1.30;;;1.20;;
928;SDS011;451;47.988;7.842;2024-03-23T13:45:27;2.70;;;1.07;;
928;SDS011;451;47.988;7.842;2024-03-23T13:54:29;4.23;;;1.17;;
928;SDS011;451;47.988;7.842;2024-03-23T14:03:31;1.00;;;0.90;;
928;SDS011;451;47.988;7.842;2024-03-23T14:12:37;1.00;;;1.00;;
928;SDS011;451;47.988;7.842;2024-03-23T14:21:39;3.97;;;0.90;;
928;SDS011;451;47.988;7.842;2024-03-23T14:30:41;1.27;;;0.97;;
928;SDS011;451;47.988;7.842;2024-03-23T14:39:43;1.53;;;0.90;;
928;SDS011;451;47.988;7.842;2024-03-23T14:48:46;1.80;;;0.70;;
928;SDS011;451;47.988;7.842;2024-03-23T14:57:48;0.80;;;0.80;;
928;SDS011;451;47.988;7.842;2024-03-23T15:06:52;0.70;;;0.70;;
928;SDS011;451;47.988;7.842;2024-03-23T15:15:54;2.10;;;0.73;;
928;SDS011;451;47.988;7.842;2024-03-23T15:24:56;0.60;;;0.60;;
928;SDS011;451;47.988;7.842;2024-03-23T15:33:58;2.23;;;1.43;;
928;SDS011;451;47.988;7.842;2024-03-23T15:43:00;0.90;;;0.90;;
928;SDS011;451;47.988;7.842;2024-03-23T15:52:02;1.90;;;0.90;;
928;SDS011;451;47.988;7.842;2024-03-23T16:01:05;1.77;;;1.20;;
928;SDS011;451;47.988;7.842;2024-03-23T16:10:10;0.50;;;0.50;;
928;SDS011;451;47.988;7.842;2024-03-23T16:19:13;0.50;;;0.50;;
928;SDS011;451;47.988;7.842;2024-03-23T16:28:15;0.70;;;0.70;;
928;SDS011;451;47.988;7.842;2024-03-23T16:37:17;0.83;;;0.83;;
928;SDS011;451;47.988;7.842;2024-03-23T16:46:19;1.10;;;0.80;;
928;SDS011;451;47.988;7.842;2024-03-23T16:55:21;2.07;;;0.93;;
928;SDS011;451;47.988;7.842;2024-03-23T17:04:24;3.80;;;1.60;;
928;SDS011;451;47.988;7.842;2024-03-23T17:13:29;9.27;;;7.13;;
928;SDS011;451;47.988;7.842;2024-03-23T17:22:31;0.90;;;0.90;;
928;SDS011;451;47.988;7.842;2024-03-23T17:31:33;0.70;;;0.70;;
928;SDS011;451;47.988;7.842;2024-03-23T17:40:35;0.80;;;0.80;;
928;SDS011;451;47.988;7.842;2024-03-23T17:49:37;0.70;;;0.70;;
928;SDS011;451;47.988;7.842;2024-03-23T17:58:39;0.70;;;0.70;;
928;SDS011;451;47.988;7.842;2024-03-23T18:07:41;0.70;;;0.70;;
928;SDS011;451;47.988;7.842;2024-03-23T18:16:44;1.07;;;0.97;;
928;SDS011;451;47.988;7.842;2024-03-23T18:25:53;0.67;;;0.67;;
928;SDS011;451;47.988;7.842;2024-03-23T18:34:57;2.50;;;0.90;;
928;SDS011;451;47.988;7.842;2024-03-23T18:43:59;2.40;;;1.03;;
928;SDS011;451;47.988;7.842;2024-03-23T18:53:03;1.37;;;1.27;;
928;SDS011;451;47.988;7.842;2024-03-23T19:02:05;2.80;;;1.10;;
928;SDS011;451;47.988;7.842;2024-03-23T19:11:07;2.27;;;0.83;;
928;SDS011;451;47.988;7.842;2024-03-23T19:20:10;1.20;;;0.90;;
928;SDS011;451;47.988;7.842;2024-03-23T19:29:12;0.70;;;0.70;;
928;SDS011;451;47.988;7.842;2024-03-23T19:38:14;0.77;;;0.77;;
928;SDS011;451;47.988;7.842;2024-03-23T19:47:16;0.60;;;0.60;;
928;SDS011;451;47.988;7.842;2024-03-23T19:56:18;3.13;;;0.90;;
928;SDS011;451;47.988;7.842;2024-03-23T20:05:20;0.80;;;0.80;;
928;SDS011;451;47.988;7.842;2024-03-23T20:14:23;0.90;;;0.90;;
928;SDS011;451;47.988;7.842;2024-03-23T20:23:26;1.40;;;1.03;;
928;SDS011;451;47.988;7.842;2024-03-23T20:32:28;0.60;;;0.60;;
928;SDS011;451;47.988;7.842;2024-03-23T20:41:30;1.47;;;1.37;;
928;SDS011;451;47.988;7.842;2024-03-23T20:50:32;3.33;;;1.87;;
928;SDS011;451;47.988;7.842;2024-03-23T20:59:37;2.55;;;1.83;;
928;SDS011;451;47.988;7.842;2024-03-23T21:08:39;1.13;;;0.97;;
928;SDS011;451;47.988;7.842;2024-03-23T21:17:41;0.90;;;0.90;;
928;SDS011;451;47.988;7.842;2024-03-23T21:26:43;0.73;;;0.73;;
928;SDS011;451;47.988;7.842;2024-03-23T21:35:45;1.30;;;1.20;;
928;SDS011;451;47.988;7.842;2024-03-23T21:44:54;1.27;;;0.70;;
928;SDS011;451;47.988;7.842;2024-03-23T21:53:56;0.60;;;0.60;;
928;SDS011;451;47.988;7.842;2024-03-23T22:02:59;0.70;;;0.70;;
928;SDS011;451;47.988;7.842;2024-03-23T22:12:01;0.60;;;0.60;;
928;SDS011;451;47.988;7.842;2024-03-23T22:21:03;0.60;;;0.60;;
928;SDS011;451;47.988;7.842;2024-03-23T22:30:06;4.73;;;1.20;;
928;SDS011;451;47.988;7.842;2024-03-23T22:39:08;1.33;;;0.80;;
928;SDS011;451;47.988;7.842;2024-03-23T22:48:10;1.03;;;1.00;;
928;SDS011;451;47.988;7.842;2024-03-23T22:57:12;0.77;;;0.77;;
928;SDS011;451;47.988;7.842;2024-03-23T23:06:14;0.80;;;0.80;;
928;SDS011;451;47.988;7.842;2024-03-23T23:15:16;1.63;;;0.80;;
928;SDS011;451;47.988;7.842;2024-03-23T23:24:18;2.33;;;0.80;;
928;SDS011;451;47.988;7.842;2024-03-23T23:33:20;1.20;;;1.10;;
928;SDS011;451;47.988;7.842;2024-03-23T23:42:22;0.93;;;0.90;;
928;SDS011;451;47.988;7.842;2024-03-23T23:51:24;0.90;;;0.90;;
